sensor_id;sensor_type;location;lat;lon;timestamp;P1;durP1;ratioP1;P2;durP2;ratioP2
60859;SDS011;46694;54.382;9.708;2023-04-24T00:01:03;11.83;;;10.63;;
60859;SDS011;46694;54.382;9.708;2023-04-24T00:03:42;11.07;;;9.90;;
60859;SDS011;46694;54.382;9.708;2023-04-24T00:06:22;10.33;;;9.33;;
60859;SDS011;46694;54.382;9.708;2023-04-24T00:09:02;13.60;;;10.10;;
60859;SDS011;46694;54.382;9.708;2023-04-24T00:11:42;10.70;;;9.70;;
60859;SDS011;46694;54.382;9.708;2023-04-24T00:14:22;11.03;;;9.97;;
60859;SDS011;46694;54.382;9.708;2023-04-24T00:17:01;11.73;;;9.80;;
60859;SDS011;46694;54.382;9.708;2023-04-24T00:19:41;12.00;;;10.50;;
60859;SDS011;46694;54.382;9.708;2023-04-24T00:22:20;13.87;;;11.03;;
60859;SDS011;46694;54.382;9.708;2023-04-24T00:25:00;11.33;;;10.17;;
60859;SDS011;46694;54.382;9.708;2023-04-24T00:27:40;11.43;;;10.33;;
60859;SDS011;46694;54.382;9.708;2023-04-24T00:30:19;13.60;;;12.07;;
60859;SDS011;46694;54.382;9.708;2023-04-24T00:32:59;12.13;;;10.80;;
60859;SDS011;46694;54.382;9.708;2023-04-24T00:35:38;12.50;;;11.00;;
60859;SDS011;46694;54.382;9.708;2023-04-24T00:38:18;11.83;;;10.10;;
60859;SDS011;46694;54.382;9.708;2023-04-24T00:40:58;14.53;;;11.83;;
60859;SDS011;46694;54.382;9.708;2023-04-24T00:43:38;12.10;;;10.43;;
60859;SDS011;46694;54.382;9.708;2023-04-24T00:46:18;10.93;;;10.03;;
60859;SDS011;46694;54.382;9.708;2023-04-24T00:48:59;13.70;;;11.50;;
60859;SDS011;46694;54.382;9.708;2023-04-24T00:51:38;12.00;;;10.87;;
60859;SDS011;46694;54.382;9.708;2023-04-24T00:54:19;11.77;;;10.53;;
60859;SDS011;46694;54.382;9.708;2023-04-24T00:56:59;13.43;;;12.13;;
60859;SDS011;46694;54.382;9.708;2023-04-24T00:59:40;13.53;;;11.30;;
60859;SDS011;46694;54.382;9.708;2023-04-24T01:02:21;13.10;;;11.70;;
60859;SDS011;46694;54.382;9.708;2023-04-24T01:05:01;13.27;;;11.87;;
60859;SDS011;46694;54.382;9.708;2023-04-24T01:07:43;13.40;;;11.00;;
60859;SDS011;46694;54.382;9.708;2023-04-24T01:10:24;12.97;;;11.43;;
60859;SDS011;46694;54.382;9.708;2023-04-24T01:13:07;14.60;;;11.87;;
60859;SDS011;46694;54.382;9.708;2023-04-24T01:15:47;12.30;;;11.10;;
60859;SDS011;46694;54.382;9.708;2023-04-24T01:18:27;14.13;;;12.63;;
60859;SDS011;46694;54.382;9.708;2023-04-24T01:21:06;14.43;;;13.03;;
60859;SDS011;46694;54.382;9.708;2023-04-24T01:23:48;13.27;;;11.83;;
60859;SDS011;46694;54.382;9.708;2023-04-24T01:26:27;14.20;;;12.90;;
60859;SDS011;46694;54.382;9.708;2023-04-24T01:29:07;12.77;;;11.50;;
60859;SDS011;46694;54.382;9.708;2023-04-24T01:31:47;14.23;;;12.80;;
60859;SDS011;46694;54.382;9.708;2023-04-24T01:34:26;16.20;;;13.10;;
60859;SDS011;46694;54.382;9.708;2023-04-24T01:37:06;13.83;;;12.40;;
60859;SDS011;46694;54.382;9.708;2023-04-24T01:39:46;20.63;;;13.53;;
60859;SDS011;46694;54.382;9.708;2023-04-24T01:42:25;15.00;;;12.30;;
60859;SDS011;46694;54.382;9.708;2023-04-24T01:45:05;13.50;;;12.10;;
60859;SDS011;46694;54.382;9.708;2023-04-24T01:47:45;19.60;;;12.23;;
60859;SDS011;46694;54.382;9.708;2023-04-24T01:50:27;15.03;;;12.60;;
60859;SDS011;46694;54.382;9.708;2023-04-24T01:53:07;14.13;;;12.77;;
60859;SDS011;46694;54.382;9.708;2023-04-24T01:55:46;22.03;;;12.67;;
60859;SDS011;46694;54.382;9.708;2023-04-24T01:58:26;15.50;;;13.37;;
60859;SDS011;46694;54.382;9.708;2023-04-24T02:01:06;14.30;;;12.80;;
60859;SDS011;46694;54.382;9.708;2023-04-24T02:03:46;12.80;;;11.43;;
60859;SDS011;46694;54.382;9.708;2023-04-24T02:06:25;13.20;;;11.97;;
60859;SDS011;46694;54.382;9.708;2023-04-24T02:09:05;13.70;;;12.40;;
60859;SDS011;46694;54.382;9.708;2023-04-24T02:11:45;12.70;;;11.43;;
60859;SDS011;46694;54.382;9.708;2023-04-24T02:14:25;14.13;;;12.30;;
60859;SDS011;46694;54.382;9.708;2023-04-24T02:17:04;12.73;;;11.53;;
60859;SDS011;46694;54.382;9.708;2023-04-24T02:19:45;19.97;;;13.03;;
60859;SDS011;46694;54.382;9.708;2023-04-24T02:22:25;16.10;;;13.07;;
60859;SDS011;46694;54.382;9.708;2023-04-24T02:25:04;15.93;;;12.60;;
60859;SDS011;46694;54.382;9.708;2023-04-24T02:27:44;13.77;;;12.30;;
60859;SDS011;46694;54.382;9.708;2023-04-24T02:30:24;17.13;;;14.23;;
60859;SDS011;46694;54.382;9.708;2023-04-24T02:33:03;14.63;;;13.10;;
60859;SDS011;46694;54.382;9.708;2023-04-24T02:35:43;16.23;;;14.53;;
60859;SDS011;46694;54.382;9.708;2023-04-24T02:38:22;14.33;;;12.60;;
60859;SDS011;46694;54.382;9.708;2023-04-24T02:41:02;23.10;;;13.50;;
60859;SDS011;46694;54.382;9.708;2023-04-24T02:43:44;15.47;;;13.93;;
60859;SDS011;46694;54.382;9.708;2023-04-24T02:46:24;14.97;;;13.43;;
60859;SDS011;46694;54.382;9.708;2023-04-24T02:49:04;16.40;;;13.40;;
60859;SDS011;46694;54.382;9.708;2023-04-24T02:51:44;15.83;;;13.17;;
60859;SDS011;46694;54.382;9.708;2023-04-24T02:54:23;13.40;;;12.17;;
60859;SDS011;46694;54.382;9.708;2023-04-24T02:57:03;15.00;;;12.80;;
60859;SDS011;46694;54.382;9.708;2023-04-24T02:59:43;13.37;;;12.03;;
60859;SDS011;46694;54.382;9.708;2023-04-24T03:02:36;14.50;;;13.00;;
60859;SDS011;46694;54.382;9.708;2023-04-24T03:07:58;18.63;;;12.30;;
60859;SDS011;46694;54.382;9.708;2023-04-24T03:10:37;12.10;;;11.00;;
60859;SDS011;46694;54.382;9.708;2023-04-24T03:13:17;12.83;;;11.63;;
60859;SDS011;46694;54.382;9.708;2023-04-24T03:15:57;13.43;;;12.03;;
60859;SDS011;46694;54.382;9.708;2023-04-24T03:18:36;13.97;;;12.57;;
60859;SDS011;46694;54.382;9.708;2023-04-24T03:21:16;15.03;;;12.33;;
60859;SDS011;46694;54.382;9.708;2023-04-24T03:23:55;13.00;;;11.77;;
60859;SDS011;46694;54.382;9.708;2023-04-24T03:26:35;12.73;;;11.40;;
60859;SDS011;46694;54.382;9.708;2023-04-24T03:29:16;15.30;;;12.43;;
60859;SDS011;46694;54.382;9.708;2023-04-24T03:31:56;13.00;;;11.70;;
60859;SDS011;46694;54.382;9.708;2023-04-24T03:34:36;12.70;;;11.40;;
60859;SDS011;46694;54.382;9.708;2023-04-24T03:37:16;12.33;;;10.23;;
60859;SDS011;46694;54.382;9.708;2023-04-24T03:39:56;11.53;;;10.40;;
60859;SDS011;46694;54.382;9.708;2023-04-24T03:42:35;11.07;;;10.07;;
60859;SDS011;46694;54.382;9.708;2023-04-24T03:45:14;10.97;;;9.97;;
60859;SDS011;46694;54.382;9.708;2023-04-24T03:47:54;9.37;;;8.50;;
60859;SDS011;46694;54.382;9.708;2023-04-24T03:50:34;13.23;;;7.33;;
60859;SDS011;46694;54.382;9.708;2023-04-24T03:53:13;9.60;;;8.70;;
60859;SDS011;46694;54.382;9.708;2023-04-24T03:55:53;8.67;;;7.93;;
60859;SDS011;46694;54.382;9.708;2023-04-24T03:58:33;8.07;;;7.23;;
60859;SDS011;46694;54.382;9.708;2023-04-24T04:01:13;8.07;;;7.30;;
60859;SDS011;46694;54.382;9.708;2023-04-24T04:07:56;6.60;;;6.00;;
60859;SDS011;46694;54.382;9.708;2023-04-24T04:10:35;7.10;;;6.50;;
60859;SDS011;46694;54.382;9.708;2023-04-24T04:13:15;6.63;;;6.10;;
60859;SDS011;46694;54.382;9.708;2023-04-24T04:15:55;5.40;;;5.10;;
60859;SDS011;46694;54.382;9.708;2023-04-24T04:18:34;5.73;;;5.33;;
60859;SDS011;46694;54.382;9.708;2023-04-24T04:21:14;5.87;;;5.37;;
60859;SDS011;46694;54.382;9.708;2023-04-24T04:23:53;6.40;;;5.57;;
60859;SDS011;46694;54.382;9.708;2023-04-24T04:26:33;6.10;;;5.53;;
60859;SDS011;46694;54.382;9.708;2023-04-24T04:29:13;6.17;;;5.67;;
60859;SDS011;46694;54.382;9.708;2023-04-24T04:31:53;5.83;;;5.43;;
60859;SDS011;46694;54.382;9.708;2023-04-24T04:34:34;7.20;;;6.70;;
60859;SDS011;46694;54.382;9.708;2023-04-24T04:37:13;8.03;;;7.27;;
60859;SDS011;46694;54.382;9.708;2023-04-24T04:39:53;6.70;;;6.20;;
60859;SDS011;46694;54.382;9.708;2023-04-24T04:42:32;7.17;;;6.57;;
60859;SDS011;46694;54.382;9.708;2023-04-24T04:45:12;6.70;;;6.20;;
60859;SDS011;46694;54.382;9.708;2023-04-24T04:47:55;7.53;;;6.83;;
60859;SDS011;46694;54.382;9.708;2023-04-24T04:50:35;6.50;;;5.90;;
60859;SDS011;46694;54.382;9.708;2023-04-24T04:53:14;6.70;;;6.20;;
60859;SDS011;46694;54.382;9.708;2023-04-24T04:55:54;6.83;;;6.27;;
60859;SDS011;46694;54.382;9.708;2023-04-24T04:58:34;6.60;;;6.10;;
60859;SDS011;46694;54.382;9.708;2023-04-24T05:01:13;7.57;;;6.87;;
60859;SDS011;46694;54.382;9.708;2023-04-24T05:03:53;8.10;;;7.40;;
60859;SDS011;46694;54.382;9.708;2023-04-24T05:06:32;7.63;;;7.03;;
60859;SDS011;46694;54.382;9.708;2023-04-24T05:09:12;7.47;;;6.87;;
60859;SDS011;46694;54.382;9.708;2023-04-24T05:11:52;7.40;;;6.90;;
60859;SDS011;46694;54.382;9.708;2023-04-24T05:14:31;7.13;;;6.60;;
60859;SDS011;46694;54.382;9.708;2023-04-24T05:17:11;8.03;;;7.33;;
60859;SDS011;46694;54.382;9.708;2023-04-24T05:19:50;6.90;;;6.40;;
60859;SDS011;46694;54.382;9.708;2023-04-24T05:22:31;9.20;;;6.20;;
60859;SDS011;46694;54.382;9.708;2023-04-24T05:25:10;7.17;;;6.67;;
60859;SDS011;46694;54.382;9.708;2023-04-24T05:27:51;6.50;;;6.00;;
60859;SDS011;46694;54.382;9.708;2023-04-24T05:30:32;6.63;;;6.13;;
60859;SDS011;46694;54.382;9.708;2023-04-24T05:33:11;5.83;;;5.43;;
60859;SDS011;46694;54.382;9.708;2023-04-24T05:35:53;4.27;;;3.97;;
60859;SDS011;46694;54.382;9.708;2023-04-24T05:38:32;5.30;;;5.00;;
60859;SDS011;46694;54.382;9.708;2023-04-24T05:41:12;6.43;;;5.10;;
60859;SDS011;46694;54.382;9.708;2023-04-24T05:43:52;5.73;;;5.33;;
60859;SDS011;46694;54.382;9.708;2023-04-24T05:46:32;6.70;;;5.40;;
60859;SDS011;46694;54.382;9.708;2023-04-24T05:49:11;6.40;;;5.90;;
60859;SDS011;46694;54.382;9.708;2023-04-24T05:51:50;6.60;;;6.17;;
60859;SDS011;46694;54.382;9.708;2023-04-24T05:54:30;6.83;;;6.37;;
60859;SDS011;46694;54.382;9.708;2023-04-24T05:57:09;7.43;;;6.83;;
60859;SDS011;46694;54.382;9.708;2023-04-24T05:59:49;7.23;;;6.53;;
60859;SDS011;46694;54.382;9.708;2023-04-24T06:02:28;9.13;;;8.03;;
60859;SDS011;46694;54.382;9.708;2023-04-24T06:05:10;7.60;;;7.10;;
60859;SDS011;46694;54.382;9.708;2023-04-24T06:07:50;8.00;;;7.47;;
60859;SDS011;46694;54.382;9.708;2023-04-24T06:10:30;8.60;;;7.67;;
60859;SDS011;46694;54.382;9.708;2023-04-24T06:13:10;8.40;;;7.80;;
60859;SDS011;46694;54.382;9.708;2023-04-24T06:15:50;8.17;;;7.57;;
60859;SDS011;46694;54.382;9.708;2023-04-24T06:18:30;7.40;;;6.90;;
60859;SDS011;46694;54.382;9.708;2023-04-24T06:21:09;7.87;;;7.27;;
60859;SDS011;46694;54.382;9.708;2023-04-24T06:23:49;9.33;;;7.10;;
60859;SDS011;46694;54.382;9.708;2023-04-24T06:26:28;7.60;;;7.00;;
60859;SDS011;46694;54.382;9.708;2023-04-24T06:29:08;7.33;;;6.83;;
60859;SDS011;46694;54.382;9.708;2023-04-24T06:31:47;7.93;;;7.00;;
60859;SDS011;46694;54.382;9.708;2023-04-24T06:34:27;6.50;;;6.10;;
60859;SDS011;46694;54.382;9.708;2023-04-24T06:37:06;7.10;;;6.60;;
60859;SDS011;46694;54.382;9.708;2023-04-24T06:39:46;7.97;;;7.27;;
60859;SDS011;46694;54.382;9.708;2023-04-24T06:42:26;7.13;;;6.60;;
60859;SDS011;46694;54.382;9.708;2023-04-24T06:45:05;7.30;;;6.80;;
60859;SDS011;46694;54.382;9.708;2023-04-24T06:47:46;7.10;;;6.60;;
60859;SDS011;46694;54.382;9.708;2023-04-24T06:50:25;7.53;;;6.83;;
60859;SDS011;46694;54.382;9.708;2023-04-24T06:53:05;6.30;;;5.87;;
60859;SDS011;46694;54.382;9.708;2023-04-24T06:55:45;6.37;;;5.87;;
60859;SDS011;46694;54.382;9.708;2023-04-24T06:58:24;7.03;;;6.53;;
60859;SDS011;46694;54.382;9.708;2023-04-24T07:01:04;5.90;;;5.40;;
60859;SDS011;46694;54.382;9.708;2023-04-24T07:03:44;6.60;;;6.10;;
60859;SDS011;46694;54.382;9.708;2023-04-24T07:06:23;6.23;;;5.73;;
60859;SDS011;46694;54.382;9.708;2023-04-24T07:09:03;5.73;;;5.20;;
60859;SDS011;46694;54.382;9.708;2023-04-24T07:11:42;6.00;;;5.60;;
60859;SDS011;46694;54.382;9.708;2023-04-24T07:14:23;6.47;;;5.80;;
60859;SDS011;46694;54.382;9.708;2023-04-24T07:17:03;6.27;;;5.70;;
60859;SDS011;46694;54.382;9.708;2023-04-24T07:19:43;5.80;;;5.40;;
60859;SDS011;46694;54.382;9.708;2023-04-24T07:22:23;6.27;;;5.87;;
60859;SDS011;46694;54.382;9.708;2023-04-24T07:25:03;6.80;;;6.30;;
60859;SDS011;46694;54.382;9.708;2023-04-24T07:27:43;6.70;;;6.20;;
60859;SDS011;46694;54.382;9.708;2023-04-24T07:30:23;6.70;;;6.20;;
60859;SDS011;46694;54.382;9.708;2023-04-24T07:33:02;6.90;;;6.43;;
60859;SDS011;46694;54.382;9.708;2023-04-24T07:35:42;7.40;;;6.73;;
60859;SDS011;46694;54.382;9.708;2023-04-24T07:38:21;7.47;;;6.97;;
60859;SDS011;46694;54.382;9.708;2023-04-24T07:41:01;7.47;;;6.87;;
60859;SDS011;46694;54.382;9.708;2023-04-24T07:43:41;6.20;;;5.70;;
60859;SDS011;46694;54.382;9.708;2023-04-24T07:46:20;6.57;;;5.60;;
60859;SDS011;46694;54.382;9.708;2023-04-24T07:49:00;6.50;;;5.90;;
60859;SDS011;46694;54.382;9.708;2023-04-24T07:51:40;6.70;;;6.23;;
60859;SDS011;46694;54.382;9.708;2023-04-24T07:54:19;6.07;;;5.47;;
60859;SDS011;46694;54.382;9.708;2023-04-24T07:56:59;6.53;;;5.43;;
60859;SDS011;46694;54.382;9.708;2023-04-24T07:59:39;6.57;;;5.03;;
60859;SDS011;46694;54.382;9.708;2023-04-24T08:02:18;6.60;;;6.00;;
60859;SDS011;46694;54.382;9.708;2023-04-24T08:04:58;6.47;;;5.97;;
60859;SDS011;46694;54.382;9.708;2023-04-24T08:07:38;6.97;;;6.27;;
60859;SDS011;46694;54.382;9.708;2023-04-24T08:10:18;6.23;;;5.70;;
60859;SDS011;46694;54.382;9.708;2023-04-24T08:12:57;8.13;;;7.40;;
60859;SDS011;46694;54.382;9.708;2023-04-24T08:15:37;8.60;;;7.10;;
60859;SDS011;46694;54.382;9.708;2023-04-24T08:18:16;6.83;;;6.37;;
60859;SDS011;46694;54.382;9.708;2023-04-24T08:20:56;6.70;;;6.10;;
60859;SDS011;46694;54.382;9.708;2023-04-24T08:23:39;6.47;;;6.07;;
60859;SDS011;46694;54.382;9.708;2023-04-24T08:26:19;7.90;;;6.90;;
60859;SDS011;46694;54.382;9.708;2023-04-24T08:28:59;8.37;;;6.63;;
60859;SDS011;46694;54.382;9.708;2023-04-24T08:31:38;7.00;;;6.50;;
60859;SDS011;46694;54.382;9.708;2023-04-24T08:34:18;7.10;;;6.40;;
60859;SDS011;46694;54.382;9.708;2023-04-24T08:36:57;6.70;;;6.20;;
60859;SDS011;46694;54.382;9.708;2023-04-24T08:39:37;7.70;;;7.10;;
60859;SDS011;46694;54.382;9.708;2023-04-24T08:42:17;7.87;;;7.17;;
60859;SDS011;46694;54.382;9.708;2023-04-24T08:44:58;7.70;;;7.10;;
60859;SDS011;46694;54.382;9.708;2023-04-24T08:47:38;7.40;;;6.80;;
60859;SDS011;46694;54.382;9.708;2023-04-24T08:50:19;7.80;;;7.00;;
60859;SDS011;46694;54.382;9.708;2023-04-24T08:53:00;7.07;;;6.50;;
60859;SDS011;46694;54.382;9.708;2023-04-24T08:55:40;6.10;;;5.63;;
60859;SDS011;46694;54.382;9.708;2023-04-24T08:58:22;10.53;;;5.87;;
60859;SDS011;46694;54.382;9.708;2023-04-24T09:01:04;6.73;;;6.23;;
60859;SDS011;46694;54.382;9.708;2023-04-24T09:03:44;7.50;;;6.87;;
60859;SDS011;46694;54.382;9.708;2023-04-24T09:06:27;6.00;;;5.50;;
60859;SDS011;46694;54.382;9.708;2023-04-24T09:09:07;6.67;;;6.17;;
60859;SDS011;46694;54.382;9.708;2023-04-24T09:11:48;10.27;;;6.20;;
60859;SDS011;46694;54.382;9.708;2023-04-24T09:14:29;6.80;;;6.20;;
60859;SDS011;46694;54.382;9.708;2023-04-24T09:17:10;5.67;;;5.27;;
60859;SDS011;46694;54.382;9.708;2023-04-24T09:19:50;6.60;;;6.07;;
60859;SDS011;46694;54.382;9.708;2023-04-24T09:22:31;5.73;;;5.33;;
60859;SDS011;46694;54.382;9.708;2023-04-24T09:25:10;6.07;;;5.67;;
60859;SDS011;46694;54.382;9.708;2023-04-24T09:27:53;6.40;;;5.90;;
60859;SDS011;46694;54.382;9.708;2023-04-24T09:30:33;6.33;;;5.77;;
60859;SDS011;46694;54.382;9.708;2023-04-24T09:33:13;6.50;;;6.00;;
60859;SDS011;46694;54.382;9.708;2023-04-24T09:35:54;6.30;;;5.80;;
60859;SDS011;46694;54.382;9.708;2023-04-24T09:38:34;6.90;;;5.93;;
60859;SDS011;46694;54.382;9.708;2023-04-24T09:41:17;6.90;;;6.40;;
60859;SDS011;46694;54.382;9.708;2023-04-24T09:43:58;6.93;;;6.13;;
60859;SDS011;46694;54.382;9.708;2023-04-24T09:46:58;7.50;;;6.20;;
60859;SDS011;46694;54.382;9.708;2023-04-24T09:49:38;8.20;;;7.50;;
60859;SDS011;46694;54.382;9.708;2023-04-24T09:52:19;8.80;;;8.00;;
60859;SDS011;46694;54.382;9.708;2023-04-24T09:55:00;8.97;;;8.10;;
60859;SDS011;46694;54.382;9.708;2023-04-24T10:00:49;10.67;;;8.90;;
60859;SDS011;46694;54.382;9.708;2023-04-24T10:03:32;8.43;;;7.73;;
60859;SDS011;46694;54.382;9.708;2023-04-24T10:06:12;8.53;;;7.73;;
60859;SDS011;46694;54.382;9.708;2023-04-24T10:08:52;9.17;;;8.27;;
60859;SDS011;46694;54.382;9.708;2023-04-24T10:11:31;9.97;;;9.07;;
60859;SDS011;46694;54.382;9.708;2023-04-24T10:14:15;9.00;;;8.20;;
60859;SDS011;46694;54.382;9.708;2023-04-24T10:16:57;9.90;;;8.90;;
60859;SDS011;46694;54.382;9.708;2023-04-24T10:19:37;8.40;;;7.70;;
60859;SDS011;46694;54.382;9.708;2023-04-24T10:22:19;9.70;;;8.70;;
60859;SDS011;46694;54.382;9.708;2023-04-24T10:25:00;8.93;;;8.10;;
60859;SDS011;46694;54.382;9.708;2023-04-24T10:27:44;8.63;;;7.73;;
60859;SDS011;46694;54.382;9.708;2023-04-24T10:30:29;9.63;;;8.83;;
60859;SDS011;46694;54.382;9.708;2023-04-24T10:33:14;9.03;;;8.33;;
60859;SDS011;46694;54.382;9.708;2023-04-24T10:35:54;9.57;;;8.63;;
60859;SDS011;46694;54.382;9.708;2023-04-24T10:38:35;10.67;;;9.47;;
60859;SDS011;46694;54.382;9.708;2023-04-24T10:41:18;12.93;;;9.30;;
60859;SDS011;46694;54.382;9.708;2023-04-24T10:46:53;9.53;;;8.73;;
60859;SDS011;46694;54.382;9.708;2023-04-24T10:49:34;9.73;;;8.83;;
60859;SDS011;46694;54.382;9.708;2023-04-24T10:52:14;13.33;;;9.77;;
60859;SDS011;46694;54.382;9.708;2023-04-24T10:54:54;9.47;;;8.10;;
60859;SDS011;46694;54.382;9.708;2023-04-24T10:57:36;9.67;;;8.53;;
60859;SDS011;46694;54.382;9.708;2023-04-24T11:00:18;8.17;;;7.37;;
60859;SDS011;46694;54.382;9.708;2023-04-24T11:03:00;9.50;;;8.57;;
60859;SDS011;46694;54.382;9.708;2023-04-24T11:08:38;9.80;;;8.50;;
60859;SDS011;46694;54.382;9.708;2023-04-24T11:11:22;10.00;;;9.07;;
60859;SDS011;46694;54.382;9.708;2023-04-24T11:14:08;16.60;;;12.30;;
60859;SDS011;46694;54.382;9.708;2023-04-24T11:20:50;12.00;;;10.80;;
60859;SDS011;46694;54.382;9.708;2023-04-24T11:23:35;10.33;;;9.33;;
60859;SDS011;46694;54.382;9.708;2023-04-24T11:26:21;11.00;;;10.00;;
60859;SDS011;46694;54.382;9.708;2023-04-24T11:29:06;10.90;;;8.87;;
60859;SDS011;46694;54.382;9.708;2023-04-24T11:31:46;9.60;;;8.63;;
60859;SDS011;46694;54.382;9.708;2023-04-24T11:34:30;10.83;;;9.30;;
60859;SDS011;46694;54.382;9.708;2023-04-24T11:37:11;10.77;;;9.67;;
60859;SDS011;46694;54.382;9.708;2023-04-24T11:39:56;9.80;;;8.80;;
60859;SDS011;46694;54.382;9.708;2023-04-24T11:42:37;10.53;;;9.43;;
60859;SDS011;46694;54.382;9.708;2023-04-24T11:45:21;10.30;;;9.20;;
60859;SDS011;46694;54.382;9.708;2023-04-24T11:48:05;12.07;;;8.63;;
60859;SDS011;46694;54.382;9.708;2023-04-24T11:50:45;9.67;;;8.87;;
60859;SDS011;46694;54.382;9.708;2023-04-24T11:53:25;10.77;;;9.73;;
60859;SDS011;46694;54.382;9.708;2023-04-24T11:56:05;11.67;;;9.40;;
60859;SDS011;46694;54.382;9.708;2023-04-24T11:58:45;11.40;;;9.10;;
60859;SDS011;46694;54.382;9.708;2023-04-24T12:01:25;11.47;;;9.40;;
60859;SDS011;46694;54.382;9.708;2023-04-24T12:04:05;10.17;;;9.10;;
60859;SDS011;46694;54.382;9.708;2023-04-24T12:07:03;9.63;;;8.80;;
60859;SDS011;46694;54.382;9.708;2023-04-24T12:09:56;13.30;;;10.40;;
60859;SDS011;46694;54.382;9.708;2023-04-24T12:12:38;11.80;;;9.10;;
60859;SDS011;46694;54.382;9.708;2023-04-24T12:15:18;12.37;;;10.03;;
60859;SDS011;46694;54.382;9.708;2023-04-24T12:17:59;12.93;;;10.23;;
60859;SDS011;46694;54.382;9.708;2023-04-24T12:20:40;11.30;;;10.30;;
60859;SDS011;46694;54.382;9.708;2023-04-24T12:26:29;12.97;;;10.70;;
60859;SDS011;46694;54.382;9.708;2023-04-24T12:29:08;12.90;;;10.90;;
60859;SDS011;46694;54.382;9.708;2023-04-24T12:31:49;11.63;;;10.30;;
60859;SDS011;46694;54.382;9.708;2023-04-24T12:34:32;13.50;;;10.07;;
60859;SDS011;46694;54.382;9.708;2023-04-24T12:37:12;12.50;;;10.70;;
60859;SDS011;46694;54.382;9.708;2023-04-24T12:39:58;10.53;;;9.53;;
60859;SDS011;46694;54.382;9.708;2023-04-24T12:42:47;10.53;;;9.53;;
60859;SDS011;46694;54.382;9.708;2023-04-24T12:45:30;10.07;;;9.07;;
60859;SDS011;46694;54.382;9.708;2023-04-24T12:48:10;10.70;;;9.80;;
60859;SDS011;46694;54.382;9.708;2023-04-24T12:50:50;11.53;;;10.37;;
60859;SDS011;46694;54.382;9.708;2023-04-24T12:53:29;11.93;;;10.70;;
60859;SDS011;46694;54.382;9.708;2023-04-24T12:56:09;11.00;;;9.97;;
60859;SDS011;46694;54.382;9.708;2023-04-24T12:58:49;11.33;;;10.23;;
60859;SDS011;46694;54.382;9.708;2023-04-24T13:01:30;10.57;;;9.57;;
60859;SDS011;46694;54.382;9.708;2023-04-24T13:04:09;11.13;;;10.07;;
60859;SDS011;46694;54.382;9.708;2023-04-24T13:06:49;10.87;;;9.67;;
60859;SDS011;46694;54.382;9.708;2023-04-24T13:09:29;11.23;;;10.07;;
60859;SDS011;46694;54.382;9.708;2023-04-24T13:15:25;14.73;;;10.43;;
60859;SDS011;46694;54.382;9.708;2023-04-24T13:18:04;12.53;;;10.83;;
60859;SDS011;46694;54.382;9.708;2023-04-24T13:20:44;14.70;;;10.53;;
60859;SDS011;46694;54.382;9.708;2023-04-24T13:23:25;18.27;;;13.27;;
60859;SDS011;46694;54.382;9.708;2023-04-24T13:26:05;29.60;;;17.10;;
60859;SDS011;46694;54.382;9.708;2023-04-24T13:28:44;37.03;;;17.93;;
60859;SDS011;46694;54.382;9.708;2023-04-24T13:31:24;46.13;;;23.63;;
60859;SDS011;46694;54.382;9.708;2023-04-24T13:34:04;10.40;;;9.50;;
60859;SDS011;46694;54.382;9.708;2023-04-24T13:36:43;10.43;;;9.43;;
60859;SDS011;46694;54.382;9.708;2023-04-24T13:39:23;10.00;;;8.77;;
60859;SDS011;46694;54.382;9.708;2023-04-24T13:42:04;9.20;;;8.40;;
60859;SDS011;46694;54.382;9.708;2023-04-24T13:44:45;9.27;;;8.37;;
60859;SDS011;46694;54.382;9.708;2023-04-24T13:47:25;7.87;;;7.27;;
60859;SDS011;46694;54.382;9.708;2023-04-24T13:50:05;8.93;;;8.13;;
60859;SDS011;46694;54.382;9.708;2023-04-24T13:52:46;8.67;;;7.77;;
60859;SDS011;46694;54.382;9.708;2023-04-24T13:55:26;8.13;;;7.53;;
60859;SDS011;46694;54.382;9.708;2023-04-24T13:58:06;10.70;;;8.93;;
60859;SDS011;46694;54.382;9.708;2023-04-24T14:00:46;9.97;;;9.07;;
60859;SDS011;46694;54.382;9.708;2023-04-24T14:03:25;8.93;;;8.13;;
60859;SDS011;46694;54.382;9.708;2023-04-24T14:06:05;9.50;;;8.50;;
60859;SDS011;46694;54.382;9.708;2023-04-24T14:08:45;10.00;;;9.10;;
60859;SDS011;46694;54.382;9.708;2023-04-24T14:11:26;8.70;;;7.90;;
60859;SDS011;46694;54.382;9.708;2023-04-24T14:14:06;9.63;;;8.73;;
60859;SDS011;46694;54.382;9.708;2023-04-24T14:16:46;13.13;;;10.87;;
60859;SDS011;46694;54.382;9.708;2023-04-24T14:19:25;10.20;;;9.10;;
60859;SDS011;46694;54.382;9.708;2023-04-24T14:22:05;10.63;;;9.43;;
60859;SDS011;46694;54.382;9.708;2023-04-24T14:24:45;30.77;;;15.70;;
60859;SDS011;46694;54.382;9.708;2023-04-24T14:27:37;14.70;;;9.87;;
60859;SDS011;46694;54.382;9.708;2023-04-24T14:30:17;35.03;;;18.30;;
60859;SDS011;46694;54.382;9.708;2023-04-24T14:32:57;7.17;;;6.47;;
60859;SDS011;46694;54.382;9.708;2023-04-24T14:35:37;7.00;;;6.40;;
60859;SDS011;46694;54.382;9.708;2023-04-24T14:38:16;7.83;;;7.13;;
60859;SDS011;46694;54.382;9.708;2023-04-24T14:40:56;8.00;;;7.30;;
60859;SDS011;46694;54.382;9.708;2023-04-24T14:43:36;6.03;;;5.53;;
60859;SDS011;46694;54.382;9.708;2023-04-24T14:46:15;5.90;;;5.40;;
60859;SDS011;46694;54.382;9.708;2023-04-24T14:48:56;5.00;;;4.50;;
60859;SDS011;46694;54.382;9.708;2023-04-24T14:51:36;4.93;;;4.50;;
60859;SDS011;46694;54.382;9.708;2023-04-24T14:54:15;5.03;;;3.97;;
60859;SDS011;46694;54.382;9.708;2023-04-24T14:56:55;3.80;;;3.60;;
60859;SDS011;46694;54.382;9.708;2023-04-24T14:59:39;2.73;;;2.53;;
60859;SDS011;46694;54.382;9.708;2023-04-24T15:02:19;1.90;;;1.80;;
60859;SDS011;46694;54.382;9.708;2023-04-24T15:04:59;1.13;;;1.13;;
60859;SDS011;46694;54.382;9.708;2023-04-24T15:07:38;0.90;;;0.90;;
60859;SDS011;46694;54.382;9.708;2023-04-24T15:10:20;1.37;;;0.70;;
60859;SDS011;46694;54.382;9.708;2023-04-24T15:13:01;0.90;;;0.80;;
60859;SDS011;46694;54.382;9.708;2023-04-24T15:15:41;0.80;;;0.80;;
60859;SDS011;46694;54.382;9.708;2023-04-24T15:18:20;1.03;;;1.03;;
60859;SDS011;46694;54.382;9.708;2023-04-24T15:21:02;5.57;;;2.20;;
60859;SDS011;46694;54.382;9.708;2023-04-24T15:23:41;4.90;;;4.60;;
60859;SDS011;46694;54.382;9.708;2023-04-24T15:26:21;7.80;;;6.37;;
60859;SDS011;46694;54.382;9.708;2023-04-24T15:29:01;16.77;;;8.77;;
60859;SDS011;46694;54.382;9.708;2023-04-24T15:31:41;11.70;;;8.63;;
60859;SDS011;46694;54.382;9.708;2023-04-24T15:34:20;9.50;;;7.80;;
60859;SDS011;46694;54.382;9.708;2023-04-24T15:37:00;10.10;;;8.53;;
60859;SDS011;46694;54.382;9.708;2023-04-24T15:39:39;9.00;;;8.10;;
60859;SDS011;46694;54.382;9.708;2023-04-24T15:42:19;9.17;;;7.10;;
60859;SDS011;46694;54.382;9.708;2023-04-24T15:44:59;9.73;;;6.70;;
60859;SDS011;46694;54.382;9.708;2023-04-24T15:47:38;8.77;;;6.97;;
60859;SDS011;46694;54.382;9.708;2023-04-24T15:50:18;5.53;;;4.80;;
60859;SDS011;46694;54.382;9.708;2023-04-24T15:53:00;5.07;;;4.67;;
60859;SDS011;46694;54.382;9.708;2023-04-24T15:55:39;5.70;;;4.67;;
60859;SDS011;46694;54.382;9.708;2023-04-24T15:58:19;4.20;;;3.90;;
60859;SDS011;46694;54.382;9.708;2023-04-24T16:00:59;4.23;;;3.63;;
60859;SDS011;46694;54.382;9.708;2023-04-24T16:03:39;6.17;;;4.60;;
60859;SDS011;46694;54.382;9.708;2023-04-24T16:06:18;5.60;;;4.73;;
60859;SDS011;46694;54.382;9.708;2023-04-24T16:08:58;6.50;;;4.40;;
60859;SDS011;46694;54.382;9.708;2023-04-24T16:11:37;6.30;;;5.10;;
60859;SDS011;46694;54.382;9.708;2023-04-24T16:14:17;7.70;;;5.87;;
60859;SDS011;46694;54.382;9.708;2023-04-24T16:16:57;14.70;;;7.30;;
60859;SDS011;46694;54.382;9.708;2023-04-24T16:19:36;11.17;;;7.03;;
60859;SDS011;46694;54.382;9.708;2023-04-24T16:22:16;7.03;;;6.43;;